Freistatt, Missouri
Current Conditions -  °F | °C
As of 7:55 PM on Thursday 25 Dec 2014 (Local Time) from KHFJ Reporting Station
Clear Clear  
Wind Chill: 40°   Ceiling: Unl
Heat Index: 46°   Visibility: 10mi
Dew Point: 30°   Wind: 16mph
Humidity: 53%   Direction: 160°SSE
Pressure: 29.87"   Gusts: 22mph
Location:  37.02°N, 93.9°W
Report Text: KHFJ 260155Z AUTO 16014G19KT 10SM CLR 08/M01 A2987 RMK AO2
Loading
Personal Weather Stations






























Interactive Weather Map New forecast layout! Learn more

10-Day Weather Forecast

Advertisements
Track Severe Weather on mobile